sensor_id;sensor_type;location;lat;lon;timestamp;temperature;humidity
20977;DHT22;10647;51.016;3.720;2023-03-09T00:01:53;5.60;99.90
20977;DHT22;10647;51.016;3.720;2023-03-09T00:04:22;5.60;99.90
20977;DHT22;10647;51.016;3.720;2023-03-09T00:06:51;5.60;99.90
20977;DHT22;10647;51.016;3.720;2023-03-09T00:09:19;5.60;99.90
20977;DHT22;10647;51.016;3.720;2023-03-09T00:11:47;5.50;99.90
20977;DHT22;10647;51.016;3.720;2023-03-09T00:14:16;5.60;99.90
20977;DHT22;10647;51.016;3.720;2023-03-09T00:16:45;5.60;99.90
20977;DHT22;10647;51.016;3.720;2023-03-09T00:19:14;5.70;99.90
20977;DHT22;10647;51.016;3.720;2023-03-09T00:21:48;5.70;99.90
20977;DHT22;10647;51.016;3.720;2023-03-09T00:24:37;5.70;99.90
20977;DHT22;10647;51.016;3.720;2023-03-09T00:27:06;5.70;99.90
20977;DHT22;10647;51.016;3.720;2023-03-09T00:29:34;5.60;99.90
20977;DHT22;10647;51.016;3.720;2023-03-09T00:32:02;5.70;99.90
20977;DHT22;10647;51.016;3.720;2023-03-09T00:34:35;5.80;99.90
20977;DHT22;10647;51.016;3.720;2023-03-09T00:37:06;5.80;99.90
20977;DHT22;10647;51.016;3.720;2023-03-09T00:39:33;5.80;99.90
20977;DHT22;10647;51.016;3.720;2023-03-09T00:42:02;5.80;99.90
20977;DHT22;10647;51.016;3.720;2023-03-09T00:44:29;5.80;99.90
20977;DHT22;10647;51.016;3.720;2023-03-09T00:46:58;5.80;99.90
20977;DHT22;10647;51.016;3.720;2023-03-09T00:49:25;5.80;99.90
20977;DHT22;10647;51.016;3.720;2023-03-09T00:51:59;5.90;99.90
20977;DHT22;10647;51.016;3.720;2023-03-09T00:54:26;5.90;99.90
20977;DHT22;10647;51.016;3.720;2023-03-09T00:56:54;5.80;99.90
20977;DHT22;10647;51.016;3.720;2023-03-09T00:59:22;5.80;99.90
20977;DHT22;10647;51.016;3.720;2023-03-09T01:01:56;5.80;99.90
20977;DHT22;10647;51.016;3.720;2023-03-09T01:04:23;5.80;99.90
20977;DHT22;10647;51.016;3.720;2023-03-09T01:06:55;5.90;99.90
20977;DHT22;10647;51.016;3.720;2023-03-09T01:09:22;5.80;99.90
20977;DHT22;10647;51.016;3.720;2023-03-09T01:11:50;5.80;99.90
20977;DHT22;10647;51.016;3.720;2023-03-09T01:14:18;5.80;99.90
20977;DHT22;10647;51.016;3.720;2023-03-09T01:16:45;5.80;99.90
20977;DHT22;10647;51.016;3.720;2023-03-09T01:19:13;5.80;99.90
20977;DHT22;10647;51.016;3.720;2023-03-09T01:21:40;5.80;99.90
20977;DHT22;10647;51.016;3.720;2023-03-09T01:24:08;5.80;99.90
20977;DHT22;10647;51.016;3.720;2023-03-09T01:26:35;5.80;99.90
20977;DHT22;10647;51.016;3.720;2023-03-09T01:29:03;5.80;99.90
20977;DHT22;10647;51.016;3.720;2023-03-09T01:31:30;5.70;99.90
20977;DHT22;10647;51.016;3.720;2023-03-09T01:33:58;5.70;99.90
20977;DHT22;10647;51.016;3.720;2023-03-09T01:36:45;5.70;99.90
20977;DHT22;10647;51.016;3.720;2023-03-09T01:39:13;5.70;99.90
20977;DHT22;10647;51.016;3.720;2023-03-09T01:41:41;5.70;99.90
20977;DHT22;10647;51.016;3.720;2023-03-09T01:44:13;5.80;99.90
20977;DHT22;10647;51.016;3.720;2023-03-09T01:46:52;5.80;99.90
20977;DHT22;10647;51.016;3.720;2023-03-09T01:49:46;5.80;99.90
20977;DHT22;10647;51.016;3.720;2023-03-09T01:52:31;5.70;99.90
20977;DHT22;10647;51.016;3.720;2023-03-09T01:55:11;5.70;99.90
20977;DHT22;10647;51.016;3.720;2023-03-09T02:00:49;5.70;99.90
20977;DHT22;10647;51.016;3.720;2023-03-09T02:06:19;5.70;99.90
20977;DHT22;10647;51.016;3.720;2023-03-09T02:11:42;5.80;99.90
20977;DHT22;10647;51.016;3.720;2023-03-09T02:14:10;5.80;99.90
20977;DHT22;10647;51.016;3.720;2023-03-09T02:16:38;5.70;99.90
20977;DHT22;10647;51.016;3.720;2023-03-09T02:19:19;5.70;99.90
20977;DHT22;10647;51.016;3.720;2023-03-09T02:27:25;5.60;99.90
20977;DHT22;10647;51.016;3.720;2023-03-09T02:29:54;5.70;99.90
20977;DHT22;10647;51.016;3.720;2023-03-09T02:32:22;5.60;99.90
20977;DHT22;10647;51.016;3.720;2023-03-09T02:34:50;5.60;99.90
20977;DHT22;10647;51.016;3.720;2023-03-09T02:37:32;5.40;99.90
20977;DHT22;10647;51.016;3.720;2023-03-09T02:40:13;5.60;99.90
20977;DHT22;10647;51.016;3.720;2023-03-09T02:43:02;5.70;99.90
20977;DHT22;10647;51.016;3.720;2023-03-09T02:45:32;5.60;99.90
20977;DHT22;10647;51.016;3.720;2023-03-09T02:48:00;5.60;99.90
20977;DHT22;10647;51.016;3.720;2023-03-09T02:50:28;5.60;99.90
20977;DHT22;10647;51.016;3.720;2023-03-09T02:52:57;5.60;99.90
20977;DHT22;10647;51.016;3.720;2023-03-09T02:55:24;5.70;99.90
20977;DHT22;10647;51.016;3.720;2023-03-09T02:57:54;5.70;99.90
20977;DHT22;10647;51.016;3.720;2023-03-09T03:00:21;5.70;99.90
20977;DHT22;10647;51.016;3.720;2023-03-09T03:02:50;5.70;99.90
20977;DHT22;10647;51.016;3.720;2023-03-09T03:05:18;5.70;99.90
20977;DHT22;10647;51.016;3.720;2023-03-09T03:07:46;5.60;99.90
20977;DHT22;10647;51.016;3.720;2023-03-09T03:10:14;5.60;99.90
20977;DHT22;10647;51.016;3.720;2023-03-09T03:12:42;5.60;99.90
20977;DHT22;10647;51.016;3.720;2023-03-09T03:15:10;5.60;99.90
20977;DHT22;10647;51.016;3.720;2023-03-09T03:17:37;5.70;99.90
20977;DHT22;10647;51.016;3.720;2023-03-09T03:20:05;5.70;99.90
20977;DHT22;10647;51.016;3.720;2023-03-09T03:22:36;5.60;99.90
20977;DHT22;10647;51.016;3.720;2023-03-09T03:25:03;5.70;99.90
20977;DHT22;10647;51.016;3.720;2023-03-09T03:27:31;5.70;99.90
20977;DHT22;10647;51.016;3.720;2023-03-09T03:29:59;5.60;99.90
20977;DHT22;10647;51.016;3.720;2023-03-09T03:32:27;5.60;99.90
20977;DHT22;10647;51.016;3.720;2023-03-09T03:34:54;5.60;99.90
20977;DHT22;10647;51.016;3.720;2023-03-09T03:37:22;5.60;99.90
20977;DHT22;10647;51.016;3.720;2023-03-09T03:39:50;5.60;99.90
20977;DHT22;10647;51.016;3.720;2023-03-09T03:42:17;5.60;99.90
20977;DHT22;10647;51.016;3.720;2023-03-09T03:44:45;5.60;99.90
20977;DHT22;10647;51.016;3.720;2023-03-09T03:47:13;5.60;99.90
20977;DHT22;10647;51.016;3.720;2023-03-09T03:49:40;5.60;99.90
20977;DHT22;10647;51.016;3.720;2023-03-09T03:52:09;5.50;99.90
20977;DHT22;10647;51.016;3.720;2023-03-09T03:54:37;5.60;99.90
20977;DHT22;10647;51.016;3.720;2023-03-09T03:57:05;5.50;99.90
20977;DHT22;10647;51.016;3.720;2023-03-09T03:59:32;5.60;99.90
20977;DHT22;10647;51.016;3.720;2023-03-09T04:02:01;5.50;99.90
20977;DHT22;10647;51.016;3.720;2023-03-09T04:04:28;5.50;99.90
20977;DHT22;10647;51.016;3.720;2023-03-09T04:06:56;5.50;99.90
20977;DHT22;10647;51.016;3.720;2023-03-09T04:09:23;5.50;99.90
20977;DHT22;10647;51.016;3.720;2023-03-09T04:11:51;5.60;99.90
20977;DHT22;10647;51.016;3.720;2023-03-09T04:14:20;5.60;99.90
20977;DHT22;10647;51.016;3.720;2023-03-09T04:16:49;5.60;99.90
20977;DHT22;10647;51.016;3.720;2023-03-09T04:19:18;5.60;99.90
20977;DHT22;10647;51.016;3.720;2023-03-09T04:21:46;5.60;99.90
20977;DHT22;10647;51.016;3.720;2023-03-09T04:24:13;5.60;99.90
20977;DHT22;10647;51.016;3.720;2023-03-09T04:26:41;5.70;99.90
20977;DHT22;10647;51.016;3.720;2023-03-09T04:29:08;5.70;99.90
20977;DHT22;10647;51.016;3.720;2023-03-09T04:31:36;5.70;99.90
20977;DHT22;10647;51.016;3.720;2023-03-09T04:34:03;5.80;99.90
20977;DHT22;10647;51.016;3.720;2023-03-09T04:36:31;5.80;99.90
20977;DHT22;10647;51.016;3.720;2023-03-09T04:38:59;5.80;99.90
20977;DHT22;10647;51.016;3.720;2023-03-09T04:41:29;5.80;99.90
20977;DHT22;10647;51.016;3.720;2023-03-09T04:43:57;5.80;99.90
20977;DHT22;10647;51.016;3.720;2023-03-09T04:46:26;5.70;99.90
20977;DHT22;10647;51.016;3.720;2023-03-09T04:48:54;5.80;99.90
20977;DHT22;10647;51.016;3.720;2023-03-09T04:51:22;5.80;99.90
20977;DHT22;10647;51.016;3.720;2023-03-09T04:53:50;5.80;99.90
20977;DHT22;10647;51.016;3.720;2023-03-09T04:56:18;5.80;99.90
20977;DHT22;10647;51.016;3.720;2023-03-09T04:58:45;5.80;99.90
20977;DHT22;10647;51.016;3.720;2023-03-09T05:01:13;5.80;99.90
20977;DHT22;10647;51.016;3.720;2023-03-09T05:03:41;5.80;99.90
20977;DHT22;10647;51.016;3.720;2023-03-09T05:06:09;5.90;99.90
20977;DHT22;10647;51.016;3.720;2023-03-09T05:08:36;5.90;99.90
20977;DHT22;10647;51.016;3.720;2023-03-09T05:11:04;5.90;99.90
20977;DHT22;10647;51.016;3.720;2023-03-09T05:13:31;5.90;99.90
20977;DHT22;10647;51.016;3.720;2023-03-09T05:15:59;5.80;99.90
20977;DHT22;10647;51.016;3.720;2023-03-09T05:18:28;5.90;99.90
20977;DHT22;10647;51.016;3.720;2023-03-09T05:20:55;5.90;99.90
20977;DHT22;10647;51.016;3.720;2023-03-09T05:23:23;5.80;99.90
20977;DHT22;10647;51.016;3.720;2023-03-09T05:28:50;5.80;99.90
20977;DHT22;10647;51.016;3.720;2023-03-09T05:31:17;5.80;99.90
20977;DHT22;10647;51.016;3.720;2023-03-09T05:33:45;5.80;99.90
20977;DHT22;10647;51.016;3.720;2023-03-09T05:36:22;5.80;99.90
20977;DHT22;10647;51.016;3.720;2023-03-09T05:38:50;5.80;99.90
20977;DHT22;10647;51.016;3.720;2023-03-09T05:41:19;5.80;99.90
20977;DHT22;10647;51.016;3.720;2023-03-09T05:43:47;5.80;99.90
20977;DHT22;10647;51.016;3.720;2023-03-09T05:46:16;5.80;99.90
20977;DHT22;10647;51.016;3.720;2023-03-09T05:48:47;5.80;99.90
20977;DHT22;10647;51.016;3.720;2023-03-09T05:51:16;5.80;99.90
20977;DHT22;10647;51.016;3.720;2023-03-09T05:53:44;5.80;99.90
20977;DHT22;10647;51.016;3.720;2023-03-09T05:56:11;5.80;99.90
20977;DHT22;10647;51.016;3.720;2023-03-09T05:58:39;5.80;99.90
20977;DHT22;10647;51.016;3.720;2023-03-09T06:01:24;5.80;99.90
20977;DHT22;10647;51.016;3.720;2023-03-09T06:03:47;5.80;99.90
20977;DHT22;10647;51.016;3.720;2023-03-09T06:06:16;5.80;99.90
20977;DHT22;10647;51.016;3.720;2023-03-09T06:11:32;5.80;99.90
20977;DHT22;10647;51.016;3.720;2023-03-09T06:13:59;5.80;99.90
20977;DHT22;10647;51.016;3.720;2023-03-09T06:16:27;5.90;99.90
20977;DHT22;10647;51.016;3.720;2023-03-09T06:18:55;5.90;99.90
20977;DHT22;10647;51.016;3.720;2023-03-09T06:21:24;5.90;99.90
20977;DHT22;10647;51.016;3.720;2023-03-09T06:23:56;5.90;99.90
20977;DHT22;10647;51.016;3.720;2023-03-09T06:26:24;5.90;99.90
20977;DHT22;10647;51.016;3.720;2023-03-09T06:28:52;6.00;99.90
20977;DHT22;10647;51.016;3.720;2023-03-09T06:31:19;6.00;99.90
20977;DHT22;10647;51.016;3.720;2023-03-09T06:33:47;6.00;99.90
20977;DHT22;10647;51.016;3.720;2023-03-09T06:36:34;6.00;99.90
20977;DHT22;10647;51.016;3.720;2023-03-09T06:39:02;6.10;99.90
20977;DHT22;10647;51.016;3.720;2023-03-09T06:41:31;6.10;99.90
20977;DHT22;10647;51.016;3.720;2023-03-09T06:44:00;6.10;99.90
20977;DHT22;10647;51.016;3.720;2023-03-09T06:46:29;6.10;99.90
20977;DHT22;10647;51.016;3.720;2023-03-09T06:48:57;6.20;99.90
20977;DHT22;10647;51.016;3.720;2023-03-09T06:51:24;6.10;99.90
20977;DHT22;10647;51.016;3.720;2023-03-09T06:53:53;6.20;99.90
20977;DHT22;10647;51.016;3.720;2023-03-09T06:56:20;6.20;99.90
20977;DHT22;10647;51.016;3.720;2023-03-09T06:58:48;6.30;99.90
20977;DHT22;10647;51.016;3.720;2023-03-09T07:01:16;6.30;99.90
20977;DHT22;10647;51.016;3.720;2023-03-09T07:03:44;6.40;99.90
20977;DHT22;10647;51.016;3.720;2023-03-09T07:06:12;6.50;99.90
20977;DHT22;10647;51.016;3.720;2023-03-09T07:08:39;6.60;99.90
20977;DHT22;10647;51.016;3.720;2023-03-09T07:11:09;6.70;99.90
20977;DHT22;10647;51.016;3.720;2023-03-09T07:13:36;6.80;99.90
20977;DHT22;10647;51.016;3.720;2023-03-09T07:16:05;6.80;99.90
20977;DHT22;10647;51.016;3.720;2023-03-09T07:18:33;7.00;99.90
20977;DHT22;10647;51.016;3.720;2023-03-09T07:21:02;7.00;99.90
20977;DHT22;10647;51.016;3.720;2023-03-09T07:23:31;7.10;99.90
20977;DHT22;10647;51.016;3.720;2023-03-09T07:26:00;7.20;99.90
20977;DHT22;10647;51.016;3.720;2023-03-09T07:28:28;7.30;99.90
20977;DHT22;10647;51.016;3.720;2023-03-09T07:30:56;7.30;99.90
20977;DHT22;10647;51.016;3.720;2023-03-09T07:33:23;7.30;99.90
20977;DHT22;10647;51.016;3.720;2023-03-09T07:35:51;7.40;99.90
20977;DHT22;10647;51.016;3.720;2023-03-09T07:38:19;7.50;99.90
20977;DHT22;10647;51.016;3.720;2023-03-09T07:40:46;7.50;99.90
20977;DHT22;10647;51.016;3.720;2023-03-09T07:43:14;7.60;99.90
20977;DHT22;10647;51.016;3.720;2023-03-09T07:45:41;7.60;99.90
20977;DHT22;10647;51.016;3.720;2023-03-09T07:48:09;7.70;99.90
20977;DHT22;10647;51.016;3.720;2023-03-09T07:50:37;7.70;99.90
20977;DHT22;10647;51.016;3.720;2023-03-09T07:53:05;7.70;99.90
20977;DHT22;10647;51.016;3.720;2023-03-09T07:55:33;7.80;99.90
20977;DHT22;10647;51.016;3.720;2023-03-09T07:58:02;7.80;99.90
20977;DHT22;10647;51.016;3.720;2023-03-09T08:00:31;7.80;99.90
20977;DHT22;10647;51.016;3.720;2023-03-09T08:02:59;7.80;99.90
20977;DHT22;10647;51.016;3.720;2023-03-09T08:05:27;7.80;99.90
20977;DHT22;10647;51.016;3.720;2023-03-09T08:07:55;7.70;99.90
20977;DHT22;10647;51.016;3.720;2023-03-09T08:10:22;7.80;99.90
20977;DHT22;10647;51.016;3.720;2023-03-09T08:12:50;7.90;99.90
20977;DHT22;10647;51.016;3.720;2023-03-09T08:15:18;7.90;99.90
20977;DHT22;10647;51.016;3.720;2023-03-09T08:17:46;8.10;99.90
20977;DHT22;10647;51.016;3.720;2023-03-09T08:20:14;8.30;99.90
20977;DHT22;10647;51.016;3.720;2023-03-09T08:22:42;8.40;99.90
20977;DHT22;10647;51.016;3.720;2023-03-09T08:25:10;8.50;99.90
20977;DHT22;10647;51.016;3.720;2023-03-09T08:27:40;8.70;99.90
20977;DHT22;10647;51.016;3.720;2023-03-09T08:30:09;8.80;99.90
20977;DHT22;10647;51.016;3.720;2023-03-09T08:32:38;8.80;99.90
20977;DHT22;10647;51.016;3.720;2023-03-09T08:35:06;8.80;99.90
20977;DHT22;10647;51.016;3.720;2023-03-09T08:37:33;8.80;99.90
20977;DHT22;10647;51.016;3.720;2023-03-09T08:40:01;8.90;99.90
20977;DHT22;10647;51.016;3.720;2023-03-09T08:42:28;9.00;99.90
20977;DHT22;10647;51.016;3.720;2023-03-09T08:44:56;9.00;99.90
20977;DHT22;10647;51.016;3.720;2023-03-09T08:47:23;9.10;99.90
20977;DHT22;10647;51.016;3.720;2023-03-09T08:49:51;9.00;99.90
20977;DHT22;10647;51.016;3.720;2023-03-09T08:52:19;8.90;99.90
20977;DHT22;10647;51.016;3.720;2023-03-09T08:54:46;8.80;99.90
20977;DHT22;10647;51.016;3.720;2023-03-09T08:57:16;8.80;99.90
20977;DHT22;10647;51.016;3.720;2023-03-09T08:59:46;8.80;99.90
20977;DHT22;10647;51.016;3.720;2023-03-09T09:02:13;8.80;99.90
20977;DHT22;10647;51.016;3.720;2023-03-09T09:04:43;8.80;99.90
20977;DHT22;10647;51.016;3.720;2023-03-09T09:07:11;8.80;99.90
20977;DHT22;10647;51.016;3.720;2023-03-09T09:09:39;8.80;99.90
20977;DHT22;10647;51.016;3.720;2023-03-09T09:12:09;8.90;99.90
20977;DHT22;10647;51.016;3.720;2023-03-09T09:14:37;9.00;99.90
20977;DHT22;10647;51.016;3.720;2023-03-09T09:17:06;9.10;99.90
20977;DHT22;10647;51.016;3.720;2023-03-09T09:19:35;9.30;99.90
20977;DHT22;10647;51.016;3.720;2023-03-09T09:22:03;9.40;99.90
20977;DHT22;10647;51.016;3.720;2023-03-09T09:24:33;9.50;99.90
20977;DHT22;10647;51.016;3.720;2023-03-09T09:27:07;9.50;99.90
20977;DHT22;10647;51.016;3.720;2023-03-09T09:29:35;9.60;99.90
20977;DHT22;10647;51.016;3.720;2023-03-09T09:32:04;9.60;99.90
20977;DHT22;10647;51.016;3.720;2023-03-09T09:34:33;9.60;99.90
20977;DHT22;10647;51.016;3.720;2023-03-09T09:37:02;9.70;99.90
20977;DHT22;10647;51.016;3.720;2023-03-09T09:39:34;9.70;99.90
20977;DHT22;10647;51.016;3.720;2023-03-09T09:42:03;9.70;99.90
20977;DHT22;10647;51.016;3.720;2023-03-09T09:44:43;9.70;99.90
20977;DHT22;10647;51.016;3.720;2023-03-09T09:47:24;9.70;99.90
20977;DHT22;10647;51.016;3.720;2023-03-09T09:49:50;9.80;99.90
20977;DHT22;10647;51.016;3.720;2023-03-09T09:58:35;9.80;99.90
20977;DHT22;10647;51.016;3.720;2023-03-09T10:01:42;9.80;99.90
20977;DHT22;10647;51.016;3.720;2023-03-09T10:03:58;9.90;99.90
20977;DHT22;10647;51.016;3.720;2023-03-09T10:06:27;10.00;99.90
20977;DHT22;10647;51.016;3.720;2023-03-09T10:12:00;10.30;99.90
20977;DHT22;10647;51.016;3.720;2023-03-09T10:20:33;10.40;99.90
20977;DHT22;10647;51.016;3.720;2023-03-09T10:23:41;10.30;99.90
20977;DHT22;10647;51.016;3.720;2023-03-09T10:32:05;10.20;99.90
20977;DHT22;10647;51.016;3.720;2023-03-09T10:34:39;10.20;99.90
20977;DHT22;10647;51.016;3.720;2023-03-09T10:37:10;10.10;99.90
20977;DHT22;10647;51.016;3.720;2023-03-09T10:39:41;10.10;99.90
20977;DHT22;10647;51.016;3.720;2023-03-09T10:42:22;10.10;99.90
20977;DHT22;10647;51.016;3.720;2023-03-09T10:45:21;10.00;99.90
20977;DHT22;10647;51.016;3.720;2023-03-09T10:47:51;9.90;99.90
20977;DHT22;10647;51.016;3.720;2023-03-09T10:50:20;9.90;99.90
20977;DHT22;10647;51.016;3.720;2023-03-09T10:52:49;10.00;99.90
20977;DHT22;10647;51.016;3.720;2023-03-09T10:55:35;10.00;99.90
20977;DHT22;10647;51.016;3.720;2023-03-09T10:58:18;10.10;99.90
20977;DHT22;10647;51.016;3.720;2023-03-09T11:00:53;10.10;99.90
20977;DHT22;10647;51.016;3.720;2023-03-09T11:03:42;10.00;99.90
20977;DHT22;10647;51.016;3.720;2023-03-09T11:08:52;10.20;99.90
20977;DHT22;10647;51.016;3.720;2023-03-09T11:14:16;10.30;99.90
20977;DHT22;10647;51.016;3.720;2023-03-09T11:16:34;10.50;99.90
20977;DHT22;10647;51.016;3.720;2023-03-09T11:19:12;10.60;99.90
20977;DHT22;10647;51.016;3.720;2023-03-09T11:24:37;10.70;99.90
20977;DHT22;10647;51.016;3.720;2023-03-09T11:27:07;10.80;99.90
20977;DHT22;10647;51.016;3.720;2023-03-09T11:29:50;10.80;99.90
20977;DHT22;10647;51.016;3.720;2023-03-09T11:32:21;10.80;99.90
20977;DHT22;10647;51.016;3.720;2023-03-09T11:34:51;10.80;99.90
20977;DHT22;10647;51.016;3.720;2023-03-09T11:37:49;10.80;99.90
20977;DHT22;10647;51.016;3.720;2023-03-09T11:40:37;10.80;99.90
20977;DHT22;10647;51.016;3.720;2023-03-09T11:49:15;10.90;99.90
20977;DHT22;10647;51.016;3.720;2023-03-09T11:54:32;10.70;99.90
20977;DHT22;10647;51.016;3.720;2023-03-09T11:57:02;11.70;99.90
20977;DHT22;10647;51.016;3.720;2023-03-09T11:59:35;11.90;99.90
20977;DHT22;10647;51.016;3.720;2023-03-09T12:02:44;11.70;99.90
20977;DHT22;10647;51.016;3.720;2023-03-09T12:04:38;11.70;99.90
20977;DHT22;10647;51.016;3.720;2023-03-09T12:07:13;11.90;99.90
20977;DHT22;10647;51.016;3.720;2023-03-09T12:09:50;12.00;99.90
20977;DHT22;10647;51.016;3.720;2023-03-09T12:12:28;12.30;99.90
20977;DHT22;10647;51.016;3.720;2023-03-09T12:15:06;12.90;99.90
20977;DHT22;10647;51.016;3.720;2023-03-09T12:17:48;13.50;99.90
20977;DHT22;10647;51.016;3.720;2023-03-09T12:20:34;13.90;99.90
20977;DHT22;10647;51.016;3.720;2023-03-09T12:28:36;14.10;99.90
20977;DHT22;10647;51.016;3.720;2023-03-09T12:31:05;14.00;99.90
20977;DHT22;10647;51.016;3.720;2023-03-09T12:36:26;13.80;99.90
20977;DHT22;10647;51.016;3.720;2023-03-09T12:53:33;14.10;99.90
20977;DHT22;10647;51.016;3.720;2023-03-09T12:56:12;13.90;99.90
20977;DHT22;10647;51.016;3.720;2023-03-09T12:58:35;13.70;99.90
20977;DHT22;10647;51.016;3.720;2023-03-09T13:01:34;13.80;99.90
20977;DHT22;10647;51.016;3.720;2023-03-09T13:04:22;13.80;99.90
20977;DHT22;10647;51.016;3.720;2023-03-09T13:06:57;14.00;99.90
20977;DHT22;10647;51.016;3.720;2023-03-09T13:09:43;14.60;99.90
20977;DHT22;10647;51.016;3.720;2023-03-09T13:12:33;15.00;99.90
20977;DHT22;10647;51.016;3.720;2023-03-09T13:20:38;15.70;99.90
20977;DHT22;10647;51.016;3.720;2023-03-09T13:23:27;15.50;99.90
20977;DHT22;10647;51.016;3.720;2023-03-09T13:25:55;15.70;99.90
20977;DHT22;10647;51.016;3.720;2023-03-09T13:28:41;16.10;99.90
20977;DHT22;10647;51.016;3.720;2023-03-09T13:31:06;16.30;99.90
20977;DHT22;10647;51.016;3.720;2023-03-09T13:33:53;16.50;99.90
20977;DHT22;10647;51.016;3.720;2023-03-09T13:39:13;17.10;99.90
20977;DHT22;10647;51.016;3.720;2023-03-09T13:41:40;17.90;99.90
20977;DHT22;10647;51.016;3.720;2023-03-09T13:44:13;19.20;99.90
20977;DHT22;10647;51.016;3.720;2023-03-09T13:46:44;18.70;99.90
20977;DHT22;10647;51.016;3.720;2023-03-09T13:49:20;18.60;99.90
20977;DHT22;10647;51.016;3.720;2023-03-09T13:54:51;18.40;99.90
20977;DHT22;10647;51.016;3.720;2023-03-09T13:57:24;18.30;99.90
20977;DHT22;10647;51.016;3.720;2023-03-09T14:02:33;17.90;99.90
20977;DHT22;10647;51.016;3.720;2023-03-09T14:05:12;17.80;99.90
20977;DHT22;10647;51.016;3.720;2023-03-09T14:07:47;17.70;99.90
20977;DHT22;10647;51.016;3.720;2023-03-09T14:16:05;17.20;99.90
20977;DHT22;10647;51.016;3.720;2023-03-09T14:21:38;16.70;99.90
20977;DHT22;10647;51.016;3.720;2023-03-09T14:24:24;16.80;99.90
20977;DHT22;10647;51.016;3.720;2023-03-09T14:26:53;16.80;99.90
20977;DHT22;10647;51.016;3.720;2023-03-09T14:32:27;16.60;99.90
20977;DHT22;10647;51.016;3.720;2023-03-09T14:34:57;16.40;99.90
20977;DHT22;10647;51.016;3.720;2023-03-09T14:37:28;16.20;99.90
20977;DHT22;10647;51.016;3.720;2023-03-09T14:39:58;16.10;99.90
20977;DHT22;10647;51.016;3.720;2023-03-09T14:42:35;15.90;99.90
20977;DHT22;10647;51.016;3.720;2023-03-09T14:48:06;15.80;99.90
20977;DHT22;10647;51.016;3.720;2023-03-09T14:50:36;15.70;99.90
20977;DHT22;10647;51.016;3.720;2023-03-09T14:53:04;15.80;99.90
20977;DHT22;10647;51.016;3.720;2023-03-09T14:55:32;15.90;99.90
20977;DHT22;10647;51.016;3.720;2023-03-09T14:58:00;15.90;99.90
20977;DHT22;10647;51.016;3.720;2023-03-09T15:00:27;15.90;99.90
20977;DHT22;10647;51.016;3.720;2023-03-09T15:02:56;15.80;99.90
20977;DHT22;10647;51.016;3.720;2023-03-09T15:05:25;15.90;99.90
20977;DHT22;10647;51.016;3.720;2023-03-09T15:07:52;15.80;99.90
20977;DHT22;10647;51.016;3.720;2023-03-09T15:10:20;15.90;99.90
20977;DHT22;10647;51.016;3.720;2023-03-09T15:12:48;16.00;99.90
20977;DHT22;10647;51.016;3.720;2023-03-09T15:15:23;16.00;99.90
20977;DHT22;10647;51.016;3.720;2023-03-09T15:17:48;16.00;99.90
20977;DHT22;10647;51.016;3.720;2023-03-09T15:20:19;15.90;99.90
20977;DHT22;10647;51.016;3.720;2023-03-09T15:22:48;15.90;99.90
20977;DHT22;10647;51.016;3.720;2023-03-09T15:25:19;15.80;99.90
20977;DHT22;10647;51.016;3.720;2023-03-09T15:27:46;15.70;99.90
20977;DHT22;10647;51.016;3.720;2023-03-09T15:30:16;15.40;99.90
20977;DHT22;10647;51.016;3.720;2023-03-09T15:32:44;15.20;99.90
20977;DHT22;10647;51.016;3.720;2023-03-09T15:35:14;14.90;99.90
20977;DHT22;10647;51.016;3.720;2023-03-09T15:37:42;14.60;99.90
20977;DHT22;10647;51.016;3.720;2023-03-09T15:40:14;14.30;99.90
20977;DHT22;10647;51.016;3.720;2023-03-09T15:42:43;14.00;99.90
20977;DHT22;10647;51.016;3.720;2023-03-09T15:45:13;13.90;99.90
20977;DHT22;10647;51.016;3.720;2023-03-09T15:47:41;13.80;99.90
20977;DHT22;10647;51.016;3.720;2023-03-09T15:50:10;13.70;99.90
20977;DHT22;10647;51.016;3.720;2023-03-09T15:52:39;13.60;99.90
20977;DHT22;10647;51.016;3.720;2023-03-09T15:55:07;13.60;99.90
20977;DHT22;10647;51.016;3.720;2023-03-09T15:57:35;13.70;99.90
20977;DHT22;10647;51.016;3.720;2023-03-09T16:00:04;13.70;99.90
20977;DHT22;10647;51.016;3.720;2023-03-09T16:02:31;13.70;99.90
20977;DHT22;10647;51.016;3.720;2023-03-09T16:04:59;13.60;99.90
20977;DHT22;10647;51.016;3.720;2023-03-09T16:07:27;13.70;99.90
20977;DHT22;10647;51.016;3.720;2023-03-09T16:09:54;13.70;99.90
20977;DHT22;10647;51.016;3.720;2023-03-09T16:12:22;13.60;99.90
20977;DHT22;10647;51.016;3.720;2023-03-09T16:14:49;13.50;99.90
20977;DHT22;10647;51.016;3.720;2023-03-09T16:17:16;13.20;99.90
20977;DHT22;10647;51.016;3.720;2023-03-09T16:19:45;13.10;99.90
20977;DHT22;10647;51.016;3.720;2023-03-09T16:22:14;13.10;99.90
20977;DHT22;10647;51.016;3.720;2023-03-09T16:24:41;13.10;99.90
20977;DHT22;10647;51.016;3.720;2023-03-09T16:27:10;13.00;99.90
20977;DHT22;10647;51.016;3.720;2023-03-09T16:29:37;13.10;99.90
20977;DHT22;10647;51.016;3.720;2023-03-09T16:32:05;13.10;99.90
20977;DHT22;10647;51.016;3.720;2023-03-09T16:34:34;13.00;99.90
20977;DHT22;10647;51.016;3.720;2023-03-09T16:37:05;13.00;99.90
20977;DHT22;10647;51.016;3.720;2023-03-09T16:39:35;13.00;99.90
20977;DHT22;10647;51.016;3.720;2023-03-09T16:42:02;13.10;99.90
20977;DHT22;10647;51.016;3.720;2023-03-09T16:44:30;13.00;99.90
20977;DHT22;10647;51.016;3.720;2023-03-09T16:46:59;12.90;99.90
20977;DHT22;10647;51.016;3.720;2023-03-09T16:49:28;12.90;99.90
20977;DHT22;10647;51.016;3.720;2023-03-09T16:51:55;12.80;99.90
20977;DHT22;10647;51.016;3.720;2023-03-09T16:54:23;12.80;99.90
20977;DHT22;10647;51.016;3.720;2023-03-09T16:56:50;12.80;99.90
20977;DHT22;10647;51.016;3.720;2023-03-09T16:59:23;12.70;99.90
20977;DHT22;10647;51.016;3.720;2023-03-09T17:01:52;12.70;99.90
20977;DHT22;10647;51.016;3.720;2023-03-09T17:04:20;12.60;99.90
20977;DHT22;10647;51.016;3.720;2023-03-09T17:06:47;12.60;99.90
20977;DHT22;10647;51.016;3.720;2023-03-09T17:09:15;12.60;99.90
20977;DHT22;10647;51.016;3.720;2023-03-09T17:11:43;12.60;99.90
20977;DHT22;10647;51.016;3.720;2023-03-09T17:14:12;12.60;99.90
20977;DHT22;10647;51.016;3.720;2023-03-09T17:16:41;12.50;99.90
20977;DHT22;10647;51.016;3.720;2023-03-09T17:19:09;12.50;99.90
20977;DHT22;10647;51.016;3.720;2023-03-09T17:21:37;12.50;99.90
20977;DHT22;10647;51.016;3.720;2023-03-09T17:24:04;12.50;99.90
20977;DHT22;10647;51.016;3.720;2023-03-09T17:26:33;12.50;99.90
20977;DHT22;10647;51.016;3.720;2023-03-09T17:29:01;12.50;99.90
20977;DHT22;10647;51.016;3.720;2023-03-09T17:31:28;12.50;99.90
20977;DHT22;10647;51.016;3.720;2023-03-09T17:33:56;12.40;99.90
20977;DHT22;10647;51.016;3.720;2023-03-09T17:36:24;12.40;99.90
20977;DHT22;10647;51.016;3.720;2023-03-09T17:38:52;12.40;99.90
20977;DHT22;10647;51.016;3.720;2023-03-09T17:41:22;12.40;99.90
20977;DHT22;10647;51.016;3.720;2023-03-09T17:43:50;12.40;99.90
20977;DHT22;10647;51.016;3.720;2023-03-09T17:46:18;12.30;99.90
20977;DHT22;10647;51.016;3.720;2023-03-09T17:48:46;12.40;99.90
20977;DHT22;10647;51.016;3.720;2023-03-09T17:51:15;12.40;99.90